Bellingham International Airport
KBLI : now visible

Airfield :











YOU CAN JOIN US ON...

 
LOGIN :

Register | Disclaimer

   EN    FR    IT 

 









Legend :    VFR   Marginal VFR   IFR   Intensive IFR   Very Intensive IFR
Visi :
Ceiling :
>= 8 km
>= 3000ft
5 to 8 km
1000 to 3000 ft
1500m to 5 km
500 to 1000 ft
800 to 1500m
200 to 500 ft
< 800m
< 200 ft
Symbols :   Thunderstorms  Fog  Heavy snow  Heavy precipitations  Wind > 20 kt






- Airport Elevation : 170 ft
- IATA code : BLI


KBLI - Bellingham International

CURRENT METAR :
  • 291330Z AUTO 16013KT 10SM -RA SCT026 SCT033 OVC050 09/06 A3004 RMK AO2 P0001 T00940056

EXPIRED METARs :
  • 291253Z AUTO 16015G24KT 10SM -RA BKN024 OVC042 10/05 A3007 RMK AO2 PK WND 15027/1226 RAB43 SLP190 P0000 T01000050
  • 291153Z AUTO 16020G28KT 10SM BKN026 OVC034 10/05 A3009 RMK AO2 PK WND 16028/1145 SLP197 70013 T01000050 10100 20061 58021
  • 291130Z AUTO 15012KT 10SM BKN029 OVC036 10/05 A3011 RMK AO2 PK WND 18027/1054 T01000050
  • 291053Z AUTO 16016G28KT 110V180 10SM FEW029 SCT038 BKN120 10/05 A3012 RMK AO2 PK WND 15028/1053 SLP208 T01000050

TAF KBLI
Valid from the 29 at 12:00 until the 30 at 12:00 UTC


291145Z 2912/3012 16014G24KT P6SM BKN030 OVC045
FM291500 16014G24KT P6SM -RA SCT025 BKN040 OVC060 WS020/20040KT
FM292000 18012KT P6SM -RA SCT015 OVC025
FM300000 18012KT P6SM -SHRA SCT015 BKN025 OVC040
FM300400 16006KT P6SM SCT011 BKN020 OVC040



MET'MAP, your aeronautical weather chart ! - Copyright ORBIFLY December 2007 - Disclaimer

ORBIFLY MET'MAP TEAM :

Programming & Development : Alexandra Zaïnal
Concept & original design : Baudouin d'Aumeries
Assistance for programming : Marc-Olivier Méhu
Technical & hardware support : Manuel Goepfert

Contact : metmap@orbifly.com




SOURCES & CREDITS :

   NOAA       Earth
Advisory